Time;durP1;ratioP1;P1;durP2;ratioP2;P2;SDS_P1;SDS_P2;PMS_P1;PMS_P2;Temp;Humidity;BMP_temperature;BMP_pressure;BME280_temperature;BME280_humidity;BME280_pressure;Samples;Min_cycle;Max_cycle;Signal;HPM_P1;HPM_P2
2021/08/12 00:00:21;;;;;;;11.38;6.60;;;;;;;25.09;100.00;96685.69;4987916;28;20045;-52
2021/08/12 00:02:51;;;;;;;9.70;7.10;;;;;;;24.88;100.00;96681.63;4992049;28;20562;-49
2021/08/12 00:05:19;;;;;;;;;;;;;;;24.39;100.00;96691.56;5004931;28;20085;-54
2021/08/12 00:07:48;;;;;;;11.10;6.88;;;;;;;24.78;100.00;96678.66;5012088;28;19964;-56
2021/08/12 00:10:16;;;;;;;9.68;6.60;;;;;;;24.78;100.00;96673.28;5004081;28;20065;-50
2021/08/12 00:12:45;;;;;;;12.55;6.82;;;;;;;24.82;100.00;96680.66;5011458;28;20528;-47
2021/08/12 00:15:13;;;;;;;9.38;6.45;;;;;;;24.76;100.00;96676.19;5010893;28;20061;-49
2021/08/12 00:17:42;;;;;;;13.85;6.68;;;;;;;24.05;100.00;96676.84;5005214;28;20066;-48
2021/08/12 00:20:13;;;;;;;12.13;7.05;;;;;;;24.33;100.00;96677.13;4987242;28;20084;-47
2021/08/12 00:22:41;;;;;;;12.07;6.90;;;;;;;23.82;100.00;96682.91;5011082;28;21457;-50
2021/08/12 00:25:10;;;;;;;11.38;7.10;;;;;;;23.85;100.00;96677.91;5009293;28;20073;-47
2021/08/12 00:27:39;;;;;;;11.68;7.10;;;;;;;23.71;100.00;96679.06;5007564;28;20069;-47
2021/08/12 00:30:08;;;;;;;8.35;6.70;;;;;;;23.09;100.00;96678.94;5004503;28;20092;-53
2021/08/12 00:32:36;;;;;;;11.80;8.02;;;;;;;23.22;100.00;96688.78;5007153;28;20061;-48
2021/08/12 00:35:06;;;;;;;12.73;7.25;;;;;;;23.81;100.00;96686.63;5015139;28;20089;-48
2021/08/12 00:37:36;;;;;;;11.13;8.30;;;;;;;23.90;100.00;96690.69;5006270;28;20065;-51
2021/08/12 00:40:06;;;;;;;11.77;8.23;;;;;;;24.34;100.00;96689.56;5004902;28;20073;-48
2021/08/12 00:42:35;;;;;;;12.45;6.22;;;;;;;24.38;100.00;96700.72;5008956;28;20057;-47
2021/08/12 00:45:04;;;;;;;11.43;6.72;;;;;;;24.09;100.00;96695.03;5010178;28;20065;-47
2021/08/12 00:47:33;;;;;;;10.27;7.10;;;;;;;24.52;100.00;96694.13;5007319;28;20495;-47
2021/08/12 00:50:01;;;;;;;10.57;7.88;;;;;;;24.31;100.00;96691.88;5014415;28;20085;-47
2021/08/12 00:52:31;;;;;;;13.02;7.07;;;;;;;24.25;100.00;96690.09;5013002;28;20099;-46
2021/08/12 00:55:02;;;;;;;7.63;6.18;;;;;;;24.16;100.00;96685.00;5007165;28;20476;-47
2021/08/12 00:57:31;;;;;;;10.20;6.30;;;;;;;24.27;100.00;96682.59;5005996;28;20065;-47
2021/08/12 01:00:00;;;;;;;10.18;6.78;;;;;;;24.31;100.00;96686.50;5004144;28;20454;-47
2021/08/12 01:02:28;;;;;;;8.00;6.38;;;;;;;24.52;100.00;96685.22;5004544;28;20092;-48
2021/08/12 01:04:57;;;;;;;8.30;6.68;;;;;;;24.54;100.00;96685.84;5008948;28;20130;-51
2021/08/12 01:07:32;;;;;;;11.40;6.30;;;;;;;24.42;100.00;96695.72;5006628;28;20078;-49
2021/08/12 01:10:07;;;;;;;10.27;6.55;;;;;;;24.18;100.00;96690.16;5007063;28;20141;-46
2021/08/12 01:12:39;;;;;;;9.13;5.97;;;;;;;23.87;100.00;96699.19;5004814;28;20070;-47
2021/08/12 01:15:09;;;;;;;11.65;7.15;;;;;;;23.49;100.00;96697.44;5013268;28;20061;-53
2021/08/12 01:17:42;;;;;;;16.52;8.15;;;;;;;23.20;100.00;96696.25;5008675;28;20063;-50
2021/08/12 01:20:47;;;;;;;11.75;7.20;;;;;;;23.40;100.00;96699.63;4990320;28;20034;-53
2021/08/12 01:23:16;;;;;;;10.20;7.05;;;;;;;23.85;100.00;96699.44;4984651;28;20630;-48
2021/08/12 01:25:46;;;;;;;9.35;6.43;;;;;;;23.44;100.00;96694.63;5009432;28;20081;-51
2021/08/12 01:28:18;;;;;;;10.18;6.45;;;;;;;23.60;100.00;96695.91;4989901;28;20082;-49
2021/08/12 01:30:58;;;;;;;8.93;6.80;;;;;;;23.04;100.00;96694.09;4988313;28;20525;-53
2021/08/12 01:33:33;;;;;;;11.52;8.35;;;;;;;23.32;100.00;96691.78;4993705;28;20074;-53
2021/08/12 01:36:04;;;;;;;13.68;7.55;;;;;;;23.39;100.00;96697.94;5005298;28;20084;-49
2021/08/12 01:38:33;;;;;;;12.63;7.85;;;;;;;23.34;100.00;96688.91;5009403;28;20551;-52
2021/08/12 01:41:01;;;;;;;11.85;7.57;;;;;;;22.65;100.00;96687.88;5013421;28;20614;-47
2021/08/12 01:43:30;;;;;;;11.05;7.93;;;;;;;22.07;100.00;96691.41;5005229;28;20080;-49
2021/08/12 01:45:59;;;;;;;15.70;8.35;;;;;;;22.35;100.00;96693.81;5004859;28;20069;-51
2021/08/12 01:48:29;;;;;;;12.00;8.77;;;;;;;22.50;100.00;96699.75;5010019;28;20454;-51
2021/08/12 01:50:58;;;;;;;14.38;8.07;;;;;;;23.34;100.00;96684.34;5000046;28;20070;-47
2021/08/12 01:53:28;;;;;;;14.10;8.57;;;;;;;23.26;100.00;96691.84;4982699;28;20105;-50
2021/08/12 01:55:58;;;;;;;14.02;8.38;;;;;;;23.32;100.00;96691.78;5007376;28;20082;-48
2021/08/12 01:58:28;;;;;;;9.77;7.70;;;;;;;22.71;100.00;96690.53;5008957;28;20078;-50
2021/08/12 02:00:57;;;;;;;12.18;8.20;;;;;;;23.26;100.00;96695.34;5007397;28;20072;-46
2021/08/12 02:03:28;;;;;;;11.17;7.93;;;;;;;23.50;100.00;96695.59;5005146;28;20532;-47
2021/08/12 02:05:58;;;;;;;15.15;8.18;;;;;;;23.18;100.00;96701.84;5007159;28;20061;-51
2021/08/12 02:08:28;;;;;;;12.27;9.18;;;;;;;22.67;100.00;96702.75;5011264;28;20099;-45
2021/08/12 02:10:56;;;;;;;12.43;8.60;;;;;;;21.94;100.00;96702.19;5005562;28;20078;-47
2021/08/12 02:13:27;;;;;;;12.20;9.35;;;;;;;23.16;100.00;96695.06;5006980;28;20068;-54
2021/08/12 02:15:56;;;;;;;16.88;9.35;;;;;;;23.02;100.00;96702.38;5006059;28;20096;-53
2021/08/12 02:18:24;;;;;;;18.58;10.82;;;;;;;23.10;100.00;96693.22;5005828;28;20057;-43
2021/08/12 02:21:02;;;;;;;12.55;9.75;;;;;;;22.28;100.00;96699.22;5006573;28;20084;-45
2021/08/12 02:23:34;;;;;;;13.05;9.23;;;;;;;22.71;100.00;96681.63;5007661;28;20073;-46
2021/08/12 02:26:05;;;;;;;12.52;8.60;;;;;;;23.10;100.00;96685.97;5008086;28;20077;-47
2021/08/12 02:28:33;;;;;;;;;;;;;;;23.28;100.00;96682.50;5005942;28;20073;-46
2021/08/12 02:31:02;;;;;;;14.70;9.57;;;;;;;23.21;100.00;96684.44;5006305;28;19976;-46
2021/08/12 02:33:34;;;;;;;11.07;9.02;;;;;;;23.07;100.00;96672.13;4996181;28;20548;-46
2021/08/12 02:36:05;;;;;;;14.85;8.73;;;;;;;23.16;100.00;96682.41;4985358;28;20069;-46
2021/08/12 02:38:38;;;;;;;20.30;9.20;;;;;;;22.80;100.00;96677.66;4989457;28;20081;-48
2021/08/12 02:41:08;;;;;;;20.25;9.60;;;;;;;22.84;100.00;96683.44;5009739;28;20073;-49
2021/08/12 02:43:39;;;;;;;25.55;10.02;;;;;;;23.26;100.00;96675.69;5006285;28;20078;-53
2021/08/12 02:46:09;;;;;;;11.43;8.25;;;;;;;23.33;100.00;96674.63;5004233;28;20049;-49
2021/08/12 02:48:38;;;;;;;10.93;7.75;;;;;;;22.74;100.00;96678.50;4994220;28;20116;-49
2021/08/12 02:51:07;;;;;;;12.30;8.75;;;;;;;22.78;100.00;96677.06;4991111;28;20466;-52
2021/08/12 02:53:37;;;;;;;11.98;7.93;;;;;;;22.66;100.00;96684.16;5003636;28;20061;-47
2021/08/12 02:56:10;;;;;;;12.45;7.82;;;;;;;22.62;100.00;96689.13;5006102;28;20084;-54
2021/08/12 02:58:41;;;;;;;9.35;8.23;;;;;;;21.98;100.00;96685.44;5004522;28;20487;-47
2021/08/12 03:01:16;;;;;;;15.48;8.70;;;;;;;22.67;100.00;96683.94;5003420;28;20564;-49
2021/08/12 03:03:45;;;;;;;10.10;7.87;;;;;;;22.89;100.00;96691.69;5005352;28;20460;-52
2021/08/12 03:06:17;;;;;;;14.35;8.57;;;;;;;22.53;100.00;96693.09;5008301;28;20598;-45
2021/08/12 03:08:50;;;;;;;12.02;7.78;;;;;;;22.14;100.00;96691.38;5006973;28;20065;-48
2021/08/12 03:11:20;;;;;;;13.63;7.30;;;;;;;22.74;100.00;96686.56;5012859;28;20085;-54
2021/08/12 03:13:53;;;;;;;12.32;7.60;;;;;;;22.43;100.00;96698.13;5007450;28;20073;-54
2021/08/12 03:16:22;;;;;;;9.02;6.45;;;;;;;22.61;100.00;96689.34;5007200;28;20076;-49
2021/08/12 03:18:51;;;;;;;8.25;6.80;;;;;;;22.49;100.00;96697.25;5005755;28;20081;-52
2021/08/12 03:21:20;;;;;;;13.93;7.82;;;;;;;22.59;100.00;96699.50;5008569;28;20440;-54
2021/08/12 03:23:50;;;;;;;10.32;7.75;;;;;;;22.64;100.00;96696.97;5005011;28;20069;-52
2021/08/12 03:26:18;;;;;;;14.05;8.05;;;;;;;22.44;100.00;96700.59;5005067;28;20463;-51
2021/08/12 03:28:47;;;;;;;11.95;7.30;;;;;;;22.71;100.00;96698.59;5012615;28;20520;-48
2021/08/12 03:31:15;;;;;;;12.18;7.30;;;;;;;22.67;100.00;96696.53;5004811;28;20084;-46
2021/08/12 03:33:44;;;;;;;8.75;7.38;;;;;;;22.42;100.00;96699.16;4990466;28;20074;-49
2021/08/12 03:36:12;;;;;;;11.82;7.85;;;;;;;21.76;100.00;96706.34;4989638;28;20041;-46
2021/08/12 03:38:41;;;;;;;14.30;9.60;;;;;;;21.68;100.00;96703.03;4988019;28;20473;-45
2021/08/12 03:41:11;;;;;;;12.32;9.95;;;;;;;21.98;100.00;96706.09;5005564;28;20554;-47
2021/08/12 03:43:39;;;;;;;15.43;8.88;;;;;;;22.39;100.00;96695.03;5000328;28;20542;-49
2021/08/12 03:46:08;;;;;;;13.70;9.50;;;;;;;22.19;100.00;96700.47;5003046;28;20547;-48
2021/08/12 03:48:36;;;;;;;15.73;9.30;;;;;;;22.66;100.00;96697.59;5012932;28;20069;-51
2021/08/12 03:51:05;;;;;;;13.80;9.27;;;;;;;22.39;100.00;96700.41;5011212;28;20073;-56
2021/08/12 03:53:33;;;;;;;15.43;9.77;;;;;;;22.07;100.00;96702.16;5005774;28;20147;-52
2021/08/12 03:56:01;;;;;;;15.35;9.07;;;;;;;22.55;100.00;96696.41;4983974;28;20089;-51
2021/08/12 03:58:32;;;;;;;14.43;8.65;;;;;;;22.64;100.00;96683.53;4991004;28;20074;-47
2021/08/12 04:01:00;;;;;;;;;;;;;;;22.11;100.00;96697.19;5003889;28;20062;-49
2021/08/12 04:03:29;;;;;;;20.45;9.18;;;;;;;21.91;100.00;96699.91;5010616;28;20013;-52
2021/08/12 04:05:58;;;;;;;11.53;8.63;;;;;;;22.28;100.00;96706.44;5028549;28;20088;-52
2021/08/12 04:08:28;;;;;;;19.08;10.35;;;;;;;22.30;100.00;96695.47;5005617;28;20086;-51
2021/08/12 04:10:57;;;;;;;18.10;9.82;;;;;;;22.15;100.00;96693.06;4991012;28;20077;-54
2021/08/12 04:13:25;;;;;;;16.95;11.13;;;;;;;22.48;100.00;96688.38;4989393;28;20070;-53
2021/08/12 04:15:56;;;;;;;22.02;9.82;;;;;;;22.63;100.00;96687.28;4994096;28;20073;-50
2021/08/12 04:18:25;;;;;;;13.50;8.75;;;;;;;22.51;100.00;96692.50;4994180;28;20065;-48
2021/08/12 04:20:54;;;;;;;12.13;8.73;;;;;;;22.79;100.00;96681.38;5004514;28;20061;-53
2021/08/12 04:23:22;;;;;;;12.77;8.60;;;;;;;22.68;100.00;96690.97;5007625;28;20107;-49
2021/08/12 04:25:52;;;;;;;13.45;9.68;;;;;;;22.63;100.00;96682.72;5010569;28;20282;-56
2021/08/12 04:28:21;;;;;;;13.65;9.25;;;;;;;22.26;100.00;96695.06;5003990;28;20073;-51
2021/08/12 04:30:49;;;;;;;14.85;8.30;;;;;;;21.67;100.00;96690.66;5005515;28;20633;-50
2021/08/12 04:33:19;;;;;;;8.35;7.35;;;;;;;21.78;100.00;96695.38;5012676;28;20068;-53
2021/08/12 04:35:48;;;;;;;13.07;7.50;;;;;;;22.23;100.00;96696.34;5008716;28;20076;-48
2021/08/12 04:38:17;;;;;;;10.98;7.10;;;;;;;22.75;100.00;96685.56;5007429;28;20081;-55
2021/08/12 04:40:46;;;;;;;8.82;6.10;;;;;;;22.58;100.00;96684.41;5012039;28;20108;-55
2021/08/12 04:43:15;;;;;;;6.00;5.45;;;;;;;22.63;100.00;96687.28;5010621;28;20069;-52
2021/08/12 04:45:43;;;;;;;7.57;5.95;;;;;;;23.35;100.00;96693.22;5007457;28;20065;-53
2021/08/12 04:48:13;;;;;;;8.27;7.47;;;;;;;24.24;100.00;96696.53;5010192;28;20576;-52
2021/08/12 04:50:43;;;;;;;10.48;6.65;;;;;;;23.68;100.00;96698.38;5010389;28;20521;-51
2021/08/12 04:53:11;;;;;;;8.35;6.90;;;;;;;23.89;100.00;96695.25;5008793;28;20143;-50
2021/08/12 04:55:40;;;;;;;8.05;7.07;;;;;;;23.92;100.00;96696.69;5006421;28;20068;-53
2021/08/12 04:58:08;;;;;;;8.70;7.65;;;;;;;24.23;100.00;96702.97;5008516;28;20057;-53
2021/08/12 05:00:36;;;;;;;10.30;7.32;;;;;;;24.09;100.00;96699.63;5007581;28;20070;-53
2021/08/12 05:03:05;;;;;;;10.13;8.18;;;;;;;23.78;100.00;96704.06;5008478;28;20498;-49
2021/08/12 05:05:35;;;;;;;10.40;7.75;;;;;;;25.44;100.00;96704.66;5007393;28;20107;-50
2021/08/12 05:08:05;;;;;;;9.40;7.87;;;;;;;25.01;100.00;96708.38;5012494;28;20077;-55
2021/08/12 05:10:34;;;;;;;10.00;7.38;;;;;;;25.72;96.34;96712.06;5009357;28;20516;-53
2021/08/12 05:13:02;;;;;;;9.80;6.97;;;;;;;27.41;78.28;96696.59;5008697;28;20048;-59
2021/08/12 05:15:31;;;;;;;8.60;7.38;;;;;;;26.75;88.79;96702.44;5014146;28;20081;-56
2021/08/12 05:18:00;;;;;;;12.07;8.57;;;;;;;28.07;71.87;96699.50;5009155;28;20061;-45
2021/08/12 05:20:29;;;;;;;8.55;7.38;;;;;;;27.81;73.31;96706.47;5006616;28;20092;-50
2021/08/12 05:22:57;;;;;;;10.07;7.07;;;;;;;27.97;74.09;96704.78;5007879;28;20081;-52
2021/08/12 05:25:27;;;;;;;9.13;6.70;;;;;;;27.98;72.49;96714.53;5006553;28;20078;-54
2021/08/12 05:27:56;;;;;;;8.75;6.78;;;;;;;29.67;62.49;96714.63;5011017;28;20065;-55
2021/08/12 05:30:25;;;;;;;9.15;7.00;;;;;;;30.90;52.95;96716.13;5006936;28;20105;-52
2021/08/12 05:32:54;;;;;;;9.18;7.93;;;;;;;29.82;59.29;96708.47;5004769;28;20087;-56
2021/08/12 05:35:22;;;;;;;10.90;7.20;;;;;;;29.36;63.39;96708.91;5006446;28;20089;-51
2021/08/12 05:37:51;;;;;;;10.80;7.65;;;;;;;30.26;57.71;96709.06;5014090;28;20143;-52
2021/08/12 05:40:19;;;;;;;12.20;8.32;;;;;;;31.66;51.09;96702.63;5004663;28;20077;-50
2021/08/12 05:42:49;;;;;;;11.73;9.18;;;;;;;29.28;64.09;96706.63;5005526;28;20065;-53
2021/08/12 05:45:18;;;;;;;13.98;9.90;;;;;;;28.23;73.54;96700.53;5008690;28;20076;-49
2021/08/12 05:47:47;;;;;;;12.75;9.90;;;;;;;26.90;96.52;96718.13;5006450;28;20062;-51
2021/08/12 05:50:15;;;;;;;14.48;9.82;;;;;;;28.20;82.05;96701.84;5006349;28;20086;-52
2021/08/12 05:52:44;;;;;;;11.75;10.40;;;;;;;28.40;80.69;96704.06;5009603;28;20126;-50
2021/08/12 05:55:12;;;;;;;12.50;10.32;;;;;;;27.94;87.31;96719.66;5007784;28;20096;-51
2021/08/12 05:57:41;;;;;;;14.13;10.77;;;;;;;28.38;80.24;96709.72;5001656;28;20066;-49
2021/08/12 06:00:15;;;;;;;13.55;10.77;;;;;;;28.08;84.45;96710.13;4986664;28;20070;-49
2021/08/12 06:02:44;;;;;;;16.00;11.18;;;;;;;28.15;85.41;96713.47;4982858;28;20466;-51
2021/08/12 06:05:13;;;;;;;12.68;11.38;;;;;;;28.31;81.43;96719.06;4990371;28;20560;-50
2021/08/12 06:07:41;;;;;;;14.27;11.70;;;;;;;28.32;80.06;96718.84;4998855;28;20066;-51
2021/08/12 06:10:10;;;;;;;16.63;11.55;;;;;;;28.32;83.85;96718.84;4996948;28;20070;-52
2021/08/12 06:12:39;;;;;;;15.07;12.82;;;;;;;27.98;90.31;96720.81;4990486;28;20069;-53
2021/08/12 06:15:08;;;;;;;17.33;12.82;;;;;;;28.16;87.56;96725.13;4995508;28;20067;-51
2021/08/12 06:17:38;;;;;;;16.15;12.13;;;;;;;28.43;86.02;96729.88;5004700;28;20072;-48
2021/08/12 06:20:08;;;;;;;13.88;12.13;;;;;;;28.51;84.21;96719.38;5010694;28;20075;-54
2021/08/12 06:22:36;;;;;;;15.02;12.70;;;;;;;28.62;86.53;96728.47;5003416;28;20065;-48
2021/08/12 06:25:05;;;;;;;17.70;12.63;;;;;;;27.98;95.04;96723.53;4991379;28;20062;-51
2021/08/12 06:27:34;;;;;;;16.60;13.35;;;;;;;28.60;86.62;96726.00;4996306;28;20618;-52
2021/08/12 06:30:03;;;;;;;15.10;12.82;;;;;;;27.09;100.00;96726.88;5002013;28;20085;-49
2021/08/12 06:32:32;;;;;;;16.38;12.95;;;;;;;27.40;100.00;96717.44;4987024;28;20069;-50
2021/08/12 06:35:02;;;;;;;16.20;12.98;;;;;;;26.55;100.00;96726.38;5005859;28;20500;-49
2021/08/12 06:37:31;;;;;;;17.20;13.27;;;;;;;28.03;100.00;96723.59;5006610;28;20069;-51
2021/08/12 06:39:59;;;;;;;17.38;13.63;;;;;;;28.14;99.19;96721.84;5009374;28;20069;-51
2021/08/12 06:42:28;;;;;;;18.63;13.32;;;;;;;26.94;100.00;96724.72;5008910;28;20076;-49
2021/08/12 06:44:56;;;;;;;16.38;13.18;;;;;;;26.99;100.00;96727.50;5006119;28;20083;-49
2021/08/12 06:47:25;;;;;;;18.48;14.30;;;;;;;27.35;100.00;96728.16;5008032;28;20516;-51
2021/08/12 06:49:53;;;;;;;18.38;14.48;;;;;;;28.59;91.48;96729.78;5010902;28;20656;-54
2021/08/12 06:52:23;;;;;;;22.30;14.27;;;;;;;28.09;92.26;96728.00;5003913;28;20085;-54
2021/08/12 06:54:51;;;;;;;19.92;14.45;;;;;;;26.94;100.00;96745.53;5007170;28;20084;-53
2021/08/12 06:57:20;;;;;;;17.88;14.25;;;;;;;27.77;100.00;96738.66;5005866;28;20073;-51
2021/08/12 06:59:48;;;;;;;16.02;13.80;;;;;;;28.63;96.54;96741.78;5009174;28;20077;-55
2021/08/12 07:02:17;;;;;;;17.30;13.30;;;;;;;29.32;86.06;96743.94;5005034;28;20141;-50
2021/08/12 07:04:45;;;;;;;19.65;13.82;;;;;;;28.27;100.00;96753.22;5010424;28;20475;-54
2021/08/12 07:07:14;;;;;;;17.17;13.30;;;;;;;28.15;100.00;96756.84;5008303;28;20073;-54
2021/08/12 07:09:44;;;;;;;18.65;13.13;;;;;;;29.50;88.95;96755.50;5004664;28;20489;-51
2021/08/12 07:12:12;;;;;;;16.77;12.38;;;;;;;29.41;92.80;96746.16;5005544;28;20069;-50
2021/08/12 07:14:41;;;;;;;18.30;13.80;;;;;;;29.38;86.73;96752.94;5001635;28;20040;-48
2021/08/12 07:17:10;;;;;;;15.50;13.50;;;;;;;30.14;79.78;96749.19;4988461;28;20078;-45
2021/08/12 07:19:38;;;;;;;19.92;14.20;;;;;;;30.03;78.33;96749.13;4986028;28;20564;-49
2021/08/12 07:22:07;;;;;;;22.45;13.63;;;;;;;28.92;96.14;96751.63;4987511;28;20046;-50
2021/08/12 07:24:35;;;;;;;16.85;13.20;;;;;;;29.43;91.63;96744.84;4999203;28;20077;-46
2021/08/12 07:27:06;;;;;;;16.25;13.55;;;;;;;30.25;79.48;96749.06;5032345;28;20466;-46
2021/08/12 07:29:34;;;;;;;18.73;14.88;;;;;;;28.06;100.00;96743.97;5002274;28;20080;-51
2021/08/12 07:32:06;;;;;;;16.60;13.98;;;;;;;28.96;96.45;96745.41;4987097;28;20096;-54
2021/08/12 07:34:34;;;;;;;16.65;13.73;;;;;;;29.42;93.79;96737.78;5003512;28;20491;-51
2021/08/12 07:37:03;;;;;;;20.35;13.38;;;;;;;29.66;87.66;96745.59;4986860;28;20094;-54
2021/08/12 07:39:32;;;;;;;17.55;13.73;;;;;;;29.37;93.86;96748.56;4982077;28;20047;-54
2021/08/12 07:42:00;;;;;;;17.08;13.73;;;;;;;30.83;75.32;96749.06;4992176;28;20153;-52
2021/08/12 07:44:30;;;;;;;17.55;13.95;;;;;;;31.62;68.02;96747.88;5005856;28;20528;-52
2021/08/12 07:46:59;;;;;;;18.65;13.13;;;;;;;31.90;66.46;96748.44;5006641;28;20049;-48
2021/08/12 07:49:27;;;;;;;19.98;14.40;;;;;;;30.24;76.31;96754.72;5005074;28;20084;-47
2021/08/12 07:51:57;;;;;;;22.27;14.23;;;;;;;30.01;81.68;96747.78;5007030;28;20076;-55
2021/08/12 07:54:25;;;;;;;19.65;13.85;;;;;;;30.48;76.18;96753.22;5003251;28;20065;-48
2021/08/12 07:56:53;;;;;;;18.15;14.50;;;;;;;31.60;67.64;96746.53;5009004;28;20467;-49
2021/08/12 07:59:22;;;;;;;19.15;14.48;;;;;;;30.27;78.29;96748.78;5005159;28;20076;-52
2021/08/12 08:01:53;;;;;;;20.52;14.00;;;;;;;31.19;72.19;96754.63;5010098;28;20116;-51
2021/08/12 08:04:22;;;;;;;18.77;14.35;;;;;;;30.96;73.96;96756.72;4999968;28;20058;-54
2021/08/12 08:06:50;;;;;;;17.88;14.25;;;;;;;30.74;75.46;96756.09;5004076;28;20480;-55
2021/08/12 08:09:19;;;;;;;19.40;14.63;;;;;;;29.30;87.62;96756.94;5000117;28;20072;-48
2021/08/12 08:11:47;;;;;;;18.42;14.90;;;;;;;30.01;82.07;96758.66;5005046;28;20985;-52
2021/08/12 08:14:16;;;;;;;26.67;15.15;;;;;;;31.17;72.48;96752.16;5001515;28;20069;-49
2021/08/12 08:16:45;;;;;;;18.17;14.98;;;;;;;31.41;70.25;96757.94;5002383;28;20566;-49
2021/08/12 08:19:18;;;;;;;19.95;14.25;;;;;;;31.76;68.00;96741.88;5015286;28;20061;-50
2021/08/12 08:21:47;;;;;;;19.75;14.15;;;;;;;31.65;69.06;96750.06;5007203;28;20512;-47
2021/08/12 08:24:15;;;;;;;19.58;15.60;;;;;;;31.62;68.01;96747.88;4998098;28;20134;-54
2021/08/12 08:26:44;;;;;;;20.00;14.70;;;;;;;32.48;61.04;96750.81;5001455;28;20078;-50
2021/08/12 08:29:12;;;;;;;21.73;14.95;;;;;;;31.98;61.26;96747.09;5006213;28;20099;-56
2021/08/12 08:31:42;;;;;;;16.90;14.75;;;;;;;30.54;76.49;96745.91;5003714;28;20575;-48
2021/08/12 08:34:11;;;;;;;16.58;13.98;;;;;;;32.19;62.02;96740.50;5005393;28;20725;-50
2021/08/12 08:36:41;;;;;;;18.33;15.93;;;;;;;31.77;62.79;96754.44;5008835;28;20053;-52
2021/08/12 08:39:10;;;;;;;23.65;15.23;;;;;;;32.81;56.72;96749.34;5007641;28;20072;-53
2021/08/12 08:41:39;;;;;;;17.88;14.68;;;;;;;32.32;60.54;96747.31;5000570;28;20061;-52
2021/08/12 08:44:08;;;;;;;18.02;14.45;;;;;;;33.53;54.44;96753.34;5012957;28;20061;-51
2021/08/12 08:46:38;;;;;;;21.77;14.05;;;;;;;32.80;55.11;96747.72;5010710;28;20062;-51
2021/08/12 08:49:06;;;;;;;;;;;;;;;32.70;56.12;96754.03;5011746;28;20050;-50
2021/08/12 08:51:36;;;;;;;16.73;14.10;;;;;;;32.33;56.39;96752.47;5006967;28;19960;-50
2021/08/12 08:54:05;;;;;;;19.20;13.67;;;;;;;33.90;51.62;96749.22;5017327;28;20083;-55
2021/08/12 08:56:34;;;;;;;18.88;13.38;;;;;;;33.91;50.39;96744.56;5013613;28;20857;-53
2021/08/12 08:59:05;;;;;;;18.92;14.70;;;;;;;33.52;53.70;96745.44;5017547;28;20085;-57
2021/08/12 09:01:35;;;;;;;18.08;13.55;;;;;;;33.62;52.80;96733.56;5000321;28;20053;-53
2021/08/12 09:04:05;;;;;;;23.55;13.48;;;;;;;33.43;52.67;96736.16;5008374;28;20049;-55
2021/08/12 09:06:33;;;;;;;17.48;13.27;;;;;;;31.39;64.93;96735.59;5006406;28;20065;-52
2021/08/12 09:09:02;;;;;;;17.33;12.27;;;;;;;33.00;55.97;96735.88;5012997;28;20076;-51
2021/08/12 09:11:32;;;;;;;14.85;12.32;;;;;;;31.52;61.02;96736.16;5002929;28;20081;-47
2021/08/12 09:14:00;;;;;;;;;;;;;;;32.44;57.87;96725.19;5010446;28;20479;-49
2021/08/12 09:16:33;;;;;;;13.68;11.82;;;;;;;32.97;58.50;96725.53;5002352;28;19977;-49
2021/08/12 09:19:12;;;;;;;16.52;11.63;;;;;;;32.78;55.28;96728.84;5008792;28;20096;-47
2021/08/12 09:21:40;;;;;;;16.15;12.43;;;;;;;32.52;59.29;96730.06;5001423;28;20069;-47
2021/08/12 09:24:09;;;;;;;13.15;11.32;;;;;;;32.39;58.86;96726.00;5004152;28;20480;-48
2021/08/12 09:26:40;;;;;;;16.55;11.18;;;;;;;33.07;55.62;96720.81;5005673;28;20046;-52
2021/08/12 09:29:09;;;;;;;11.73;9.95;;;;;;;33.44;51.45;96721.38;5010419;28;20089;-50
2021/08/12 09:31:56;;;;;;;14.63;10.37;;;;;;;33.37;54.28;96715.41;5010991;28;20551;-53
2021/08/12 09:34:25;;;;;;;13.48;10.48;;;;;;;33.67;52.49;96714.41;5006898;28;20523;-47
2021/08/12 09:37:03;;;;;;;13.43;10.90;;;;;;;34.13;50.27;96711.25;5006179;28;20080;-54
2021/08/12 09:39:32;;;;;;;13.93;10.00;;;;;;;33.78;53.93;96715.94;5006151;28;20081;-50
2021/08/12 09:42:03;;;;;;;16.10;11.40;;;;;;;34.62;48.20;96716.50;5009739;28;20061;-51
2021/08/12 09:44:37;;;;;;;15.90;10.30;;;;;;;33.54;53.46;96713.94;5009381;28;20061;-48
2021/08/12 09:47:07;;;;;;;13.20;10.40;;;;;;;32.89;52.83;96715.16;5009384;28;20093;-48
2021/08/12 09:49:44;;;;;;;15.93;9.95;;;;;;;33.44;53.47;96714.00;5008869;28;20061;-55
2021/08/12 09:52:27;;;;;;;14.38;10.05;;;;;;;33.06;53.29;96710.16;5004294;28;20506;-47
2021/08/12 09:55:01;;;;;;;14.73;9.65;;;;;;;34.18;48.12;96705.75;5006077;28;20584;-53
2021/08/12 09:57:41;;;;;;;18.10;10.20;;;;;;;32.83;52.33;96717.91;5007471;28;20062;-52
2021/08/12 10:00:12;;;;;;;14.25;10.48;;;;;;;33.32;50.50;96713.56;5005092;28;20091;-49
2021/08/12 10:02:41;;;;;;;12.43;9.60;;;;;;;33.51;50.51;96714.50;5015135;28;20065;-53
2021/08/12 10:05:11;;;;;;;12.75;9.50;;;;;;;34.65;46.19;96717.81;5007530;28;20697;-50
2021/08/12 10:07:42;;;;;;;11.10;9.15;;;;;;;34.13;47.14;96714.81;5005040;28;20470;-48
2021/08/12 10:10:21;;;;;;;11.30;9.95;;;;;;;33.89;47.20;96714.72;5011142;28;20065;-52
2021/08/12 10:12:52;;;;;;;12.90;9.95;;;;;;;32.80;52.51;96720.41;5008727;28;20557;-49
2021/08/12 10:15:22;;;;;;;11.50;9.50;;;;;;;32.54;51.17;96723.22;5005663;28;20061;-53
2021/08/12 10:17:51;;;;;;;12.48;9.82;;;;;;;32.95;52.59;96714.03;5004674;28;20077;-49
2021/08/12 10:20:22;;;;;;;15.63;9.32;;;;;;;34.16;47.23;96716.97;5005514;28;20073;-48
2021/08/12 10:22:53;;;;;;;13.68;9.35;;;;;;;34.88;45.42;96716.16;5005460;28;20073;-47
2021/08/12 10:25:23;;;;;;;15.15;9.20;;;;;;;34.02;50.55;96714.09;5005849;28;20065;-53
2021/08/12 10:27:56;;;;;;;19.08;9.57;;;;;;;32.97;51.48;96711.88;5009567;28;20150;-52
2021/08/12 10:30:43;;;;;;;15.00;9.10;;;;;;;33.57;50.34;96714.50;4993512;28;20157;-53
2021/08/12 10:33:11;;;;;;;14.18;9.15;;;;;;;34.05;47.98;96712.72;4993879;28;20070;-50
2021/08/12 10:35:40;;;;;;;12.90;9.02;;;;;;;32.87;52.95;96712.72;5004670;28;20409;-47
2021/08/12 10:38:08;;;;;;;14.15;9.25;;;;;;;32.83;48.82;96704.25;5008485;28;20081;-48
2021/08/12 10:40:39;;;;;;;13.07;9.23;;;;;;;32.69;49.43;96705.13;5006555;28;20053;-50
2021/08/12 10:43:11;;;;;;;14.23;8.60;;;;;;;34.24;44.84;96701.81;5002987;28;20094;-46
2021/08/12 10:45:39;;;;;;;11.73;9.30;;;;;;;34.65;47.88;96701.38;4995910;28;20081;-52
2021/08/12 10:48:19;;;;;;;12.25;9.25;;;;;;;34.85;46.13;96700.28;4987357;28;20088;-48
2021/08/12 10:51:01;;;;;;;11.18;9.13;;;;;;;35.06;43.20;96698.09;4988790;28;20065;-47
2021/08/12 10:53:29;;;;;;;11.80;8.82;;;;;;;34.72;44.93;96690.84;5003356;28;20096;-48
2021/08/12 10:56:06;;;;;;;10.45;8.70;;;;;;;34.88;45.29;96695.03;5007382;28;20070;-47
2021/08/12 10:58:42;;;;;;;12.73;9.32;;;;;;;33.22;47.80;96692.56;5000228;28;20080;-52
2021/08/12 11:01:13;;;;;;;11.85;8.88;;;;;;;34.10;44.62;96688.00;4970130;28;20112;-53
2021/08/12 11:03:45;;;;;;;9.13;8.18;;;;;;;34.70;45.16;96682.13;4992633;28;20070;-52
2021/08/12 11:06:16;;;;;;;12.05;9.05;;;;;;;33.74;44.38;96685.59;4996266;28;20072;-53
2021/08/12 11:08:59;;;;;;;10.70;9.10;;;;;;;35.08;41.41;96690.41;5007510;28;20065;-49
2021/08/12 11:12:06;;;;;;;11.80;8.80;;;;;;;35.24;41.67;96686.34;5006061;28;20093;-46
2021/08/12 11:14:53;;;;;;;10.68;8.55;;;;;;;34.35;43.23;96684.19;5003670;28;20089;-51
2021/08/12 11:17:22;;;;;;;9.57;8.35;;;;;;;33.41;41.99;96670.81;5004691;28;20074;-50
2021/08/12 11:19:51;;;;;;;12.80;8.45;;;;;;;33.60;42.39;96681.91;5014212;28;20088;-49
2021/08/12 11:22:36;;;;;;;9.98;8.32;;;;;;;34.44;41.63;96682.41;5005992;28;20073;-49
2021/08/12 11:25:07;;;;;;;8.90;8.00;;;;;;;33.59;41.92;96673.97;5003744;28;20543;-55
2021/08/12 11:27:46;;;;;;;15.80;8.13;;;;;;;35.38;38.94;96670.75;5005152;28;20072;-50
2021/08/12 11:30:46;;;;;;;;;;;;;;;35.28;41.55;96675.59;5006953;28;20074;-53
2021/08/12 11:33:50;;;;;;;12.00;8.88;;;;;;;35.53;41.49;96668.91;5009905;28;20364;-49
2021/08/12 11:36:22;;;;;;;13.50;8.25;;;;;;;33.78;45.25;96666.69;5003998;28;20069;-49